createdAt,value
2022-09-14T00:06:07.041Z,20.23
2022-09-14T00:26:06.901Z,20.22
2022-09-14T00:46:06.533Z,20.21
2022-09-14T01:06:06.971Z,20.2
2022-09-14T01:26:06.928Z,20.19
2022-09-14T01:46:06.938Z,20.19
2022-09-14T02:06:06.878Z,20.19
2022-09-14T02:26:06.844Z,20.18
2022-09-14T02:46:06.299Z,20.18
2022-09-14T03:06:06.787Z,20.17
2022-09-14T03:26:06.767Z,20.17
2022-09-14T03:46:06.818Z,20.17
2022-09-14T04:06:06.705Z,20.17
2022-09-14T04:26:06.687Z,20.17
2022-09-14T04:46:06.688Z,20.17
2022-09-14T05:06:06.502Z,20.17
2022-09-14T05:26:06.598Z,20.16
2022-09-14T05:46:06.626Z,20.16
2022-09-14T06:06:06.546Z,20.16
2022-09-14T06:26:06.534Z,20.16
2022-09-14T07:06:06.473Z,20.16
2022-09-14T07:46:06.510Z,20.15
2022-09-14T08:26:06.372Z,20.14
2022-09-14T08:46:06.403Z,20.16
2022-09-14T09:06:06.316Z,20.14
2022-09-14T09:26:06.283Z,20.16
2022-09-14T09:46:06.271Z,20.15
2022-09-14T10:06:05.705Z,20.37
2022-09-14T10:26:05.681Z,20.1
2022-09-14T10:46:06.213Z,20.11
2022-09-14T11:26:06.117Z,20.1
2022-09-14T12:06:06.068Z,20.08
2022-09-14T12:26:05.268Z,20.07
2022-09-14T13:06:05.995Z,20.07
2022-09-14T13:26:05.966Z,20.07
2022-09-14T13:46:05.979Z,20.06
2022-09-14T14:06:05.909Z,20.06
2022-09-14T14:26:05.878Z,20.05
2022-09-14T15:06:05.836Z,20.05
2022-09-14T15:26:05.276Z,20.05
2022-09-14T15:46:05.780Z,20.05
2022-09-14T16:06:05.753Z,20.04
2022-09-14T16:26:05.718Z,20.04
2022-09-14T16:46:05.708Z,20.04
2022-09-14T17:06:05.539Z,20.04
2022-09-14T17:26:05.637Z,20.04
2022-09-14T17:46:04.842Z,20.04
2022-09-14T18:06:05.579Z,20.02
2022-09-14T18:46:05.599Z,20
2022-09-14T19:46:05.481Z,20.02
2022-09-14T21:46:05.377Z,19.99
2022-09-14T22:06:05.302Z,19.99
2022-09-14T22:46:05.481Z,19.98
2022-09-14T23:06:05.234Z,19.99
2022-09-14T23:26:05.207Z,19.97
2022-09-14T23:46:05.255Z,19.95
